createdAt,value
2023-02-14T00:03:23.804Z,17.90
2023-02-14T00:08:27.420Z,18.30
2023-02-14T00:13:30.995Z,18.80
2023-02-14T00:18:52.526Z,18.30
2023-02-14T00:23:55.984Z,19.00
2023-02-14T00:28:59.665Z,19.70
2023-02-14T00:34:03.213Z,18.50
2023-02-14T00:39:09.027Z,18.70
2023-02-14T00:44:14.674Z,18.70
2023-02-14T00:49:18.514Z,18.30
2023-02-14T00:54:22.101Z,21.10
2023-02-14T00:59:25.875Z,20.40
2023-02-14T01:04:29.638Z,19.10
2023-02-14T01:09:33.404Z,19.30
2023-02-14T01:14:38.777Z,18.10
2023-02-14T01:19:42.111Z,19.20
2023-02-14T01:24:45.698Z,19.10
2023-02-14T01:29:49.215Z,16.80
2023-02-14T01:34:52.761Z,19.20
2023-02-14T01:39:56.290Z,18.80
2023-02-14T01:45:03.599Z,20.10
2023-02-14T01:50:12.040Z,18.80
2023-02-14T01:55:19.398Z,19.80
2023-02-14T02:00:41.743Z,18.00
2023-02-14T02:05:50.079Z,17.70
2023-02-14T02:10:53.601Z,17.80
2023-02-14T02:16:13.112Z,17.20
2023-02-14T02:22:06.878Z,17.00
2023-02-14T02:27:40.133Z,18.00
2023-02-14T02:33:20.280Z,17.30
2023-02-14T02:38:38.179Z,17.80
2023-02-14T02:43:51.746Z,18.30
2023-02-14T02:49:05.618Z,17.90
2023-02-14T02:54:16.646Z,16.00
2023-02-14T02:59:24.380Z,15.80
2023-02-14T03:04:52.822Z,15.90
2023-02-14T03:09:58.614Z,16.40
2023-02-14T03:15:11.975Z,18.20
2023-02-14T03:20:22.062Z,17.50
2023-02-14T03:25:36.998Z,16.50
2023-02-14T03:30:52.760Z,16.30
2023-02-14T03:36:01.913Z,18.00
2023-02-14T03:41:12.455Z,16.30
2023-02-14T03:46:22.042Z,15.80
2023-02-14T03:51:27.930Z,16.00
2023-02-14T03:56:37.068Z,15.20
2023-02-14T04:01:47.941Z,16.40
2023-02-14T04:06:51.848Z,16.50
2023-02-14T04:11:55.405Z,17.50
2023-02-14T04:17:17.516Z,16.70
2023-02-14T04:27:23.629Z,15.70
2023-02-14T04:32:27.224Z,15.60
2023-02-14T04:37:30.925Z,16.80
2023-02-14T04:42:34.426Z,17.10
2023-02-14T04:47:37.920Z,16.00
2023-02-14T04:52:41.866Z,16.20
2023-02-14T04:57:45.312Z,18.00
2023-02-14T05:02:48.955Z,18.20
2023-02-14T05:07:52.656Z,18.40
2023-02-14T05:12:56.221Z,17.30
2023-02-14T05:18:02.313Z,17.50
2023-02-14T05:23:12.877Z,16.40
2023-02-14T05:28:16.874Z,16.10
2023-02-14T05:33:20.395Z,16.00
2023-02-14T05:38:23.929Z,16.20
2023-02-14T05:43:27.758Z,16.20
2023-02-14T05:48:31.309Z,17.30
2023-02-14T05:53:35.524Z,17.90
2023-02-14T05:58:39.121Z,18.10
2023-02-14T06:03:42.653Z,17.80
2023-02-14T06:08:46.377Z,19.30
2023-02-14T06:13:49.879Z,18.40
2023-02-14T06:18:53.356Z,16.20
2023-02-14T06:23:56.919Z,18.70
2023-02-14T06:29:00.404Z,18.30
2023-02-14T06:34:03.836Z,20.80
2023-02-14T06:39:07.266Z,20.10
2023-02-14T06:44:10.866Z,19.00
2023-02-14T06:49:14.529Z,19.60
2023-02-14T06:54:18.193Z,18.40
2023-02-14T06:59:22.078Z,19.40
2023-02-14T07:04:25.774Z,18.00
2023-02-14T07:09:29.802Z,18.40
2023-02-14T07:14:33.363Z,17.60
2023-02-14T07:19:37.228Z,17.80
2023-02-14T07:24:41.626Z,16.40
2023-02-14T07:29:45.140Z,14.40
2023-02-14T07:34:48.777Z,16.30
2023-02-14T07:39:52.251Z,15.50
2023-02-14T07:44:55.961Z,16.30
2023-02-14T07:49:59.537Z,15.50
2023-02-14T07:55:02.988Z,14.10
2023-02-14T08:00:09.365Z,14.80
2023-02-14T08:05:16.423Z,14.10
2023-02-14T08:10:20.323Z,15.50
2023-02-14T08:15:44.564Z,14.20
2023-02-14T08:20:49.386Z,14.10
2023-02-14T08:25:53.523Z,13.30
2023-02-14T08:31:02.489Z,14.30
2023-02-14T08:36:06.933Z,14.60
2023-02-14T08:41:10.605Z,12.50
2023-02-14T08:46:16.191Z,12.50
2023-02-14T08:51:20.256Z,14.00
2023-02-14T08:56:26.696Z,14.30
2023-02-14T09:01:30.362Z,15.60
2023-02-14T09:06:37.131Z,14.70
2023-02-14T09:11:41.104Z,14.10
2023-02-14T09:16:44.703Z,13.20
2023-02-14T09:21:48.480Z,13.40
2023-02-14T09:26:52.348Z,11.50
2023-02-14T09:31:57.754Z,12.50
2023-02-14T09:37:01.536Z,11.70
2023-02-14T09:42:33.761Z,11.50
2023-02-14T09:47:43.757Z,8.60
2023-02-14T09:52:49.759Z,9.30
2023-02-14T09:58:12.566Z,9.80
2023-02-14T10:03:56.565Z,9.60
2023-02-14T10:09:10.917Z,10.80
2023-02-14T10:14:17.865Z,9.50
2023-02-14T10:19:28.927Z,8.60
2023-02-14T10:24:38.340Z,9.20
2023-02-14T10:29:42.339Z,9.00
2023-02-14T10:34:48.353Z,8.60
2023-02-14T10:40:05.608Z,9.00
2023-02-14T10:45:19.325Z,9.30
2023-02-14T10:50:31.917Z,9.40
2023-02-14T10:55:43.780Z,9.20
2023-02-14T11:00:55.366Z,8.10
2023-02-14T11:05:58.935Z,8.80
2023-02-14T11:11:11.241Z,8.20
2023-02-14T11:16:29.327Z,9.10
2023-02-14T11:21:38.489Z,7.90
2023-02-14T11:26:47.110Z,7.90
2023-02-14T11:31:51.246Z,8.50
2023-02-14T11:36:55.125Z,8.90
2023-02-14T11:42:01.070Z,7.70
2023-02-14T11:47:20.774Z,4.00
2023-02-14T11:52:28.373Z,5.80
2023-02-14T11:57:35.370Z,6.10
2023-02-14T12:02:41.911Z,4.40
2023-02-14T12:07:48.189Z,4.10
2023-02-14T12:12:58.814Z,3.70
2023-02-14T12:18:17.821Z,3.90
2023-02-14T12:23:26.969Z,4.30
2023-02-14T12:28:38.839Z,3.80
2023-02-14T12:33:42.473Z,5.20
2023-02-14T12:38:55.564Z,5.80
2023-02-14T12:44:05.784Z,4.80
2023-02-14T12:49:32.102Z,5.00
2023-02-14T12:54:49.456Z,5.20
2023-02-14T13:00:03.201Z,5.40
2023-02-14T13:05:16.729Z,5.50
2023-02-14T13:10:30.290Z,5.70
2023-02-14T13:15:42.171Z,4.60
2023-02-14T13:26:01.138Z,5.10
2023-02-14T13:31:05.672Z,5.90
2023-02-14T13:36:12.253Z,4.90
2023-02-14T13:41:16.986Z,4.70
2023-02-14T13:46:42.774Z,5.60
2023-02-14T13:51:48.626Z,5.40
2023-02-14T13:56:52.267Z,5.70
2023-02-14T14:01:56.385Z,4.70
2023-02-14T14:07:18.933Z,5.30
2023-02-14T14:12:39.549Z,4.90
2023-02-14T14:17:45.381Z,5.60
2023-02-14T14:22:51.054Z,5.60
2023-02-14T14:27:54.518Z,6.30
2023-02-14T14:33:13.529Z,5.60
2023-02-14T14:38:17.157Z,5.80
2023-02-14T14:43:27.233Z,6.20
2023-02-14T14:48:33.352Z,5.50
2023-02-14T14:53:43.983Z,6.00
2023-02-14T14:58:47.520Z,6.60
2023-02-14T15:03:51.399Z,5.80
2023-02-14T15:08:56.101Z,5.80
2023-02-14T15:14:05.353Z,6.60
2023-02-14T15:19:33.871Z,6.20
2023-02-14T15:24:41.590Z,7.40
2023-02-14T15:29:55.937Z,7.20
2023-02-14T15:35:11.061Z,6.60
2023-02-14T15:40:24.113Z,8.40
2023-02-14T15:45:37.001Z,7.10
2023-02-14T15:50:48.212Z,6.70
2023-02-14T15:56:02.598Z,7.30
2023-02-14T16:01:13.332Z,6.30
2023-02-14T16:06:36.765Z,8.60
2023-02-14T16:11:41.343Z,8.10
2023-02-14T16:17:02.379Z,9.00
2023-02-14T16:22:08.604Z,9.90
2023-02-14T16:27:13.205Z,10.70
2023-02-14T16:32:22.720Z,10.30
2023-02-14T16:37:33.790Z,10.50
2023-02-14T16:42:40.280Z,9.40
2023-02-14T16:47:53.770Z,9.50
2023-02-14T16:53:00.845Z,11.30
2023-02-14T16:58:05.925Z,12.90
2023-02-14T17:03:13.140Z,14.80
2023-02-14T17:08:18.275Z,12.90
2023-02-14T17:13:33.110Z,18.50
2023-02-14T17:18:37.943Z,24.90
2023-02-14T17:23:42.852Z,29.30
2023-02-14T17:28:47.257Z,15.30
2023-02-14T17:33:56.530Z,12.80
2023-02-14T17:39:02.865Z,14.10
2023-02-14T17:44:09.674Z,17.50
2023-02-14T17:49:16.184Z,17.40
2023-02-14T17:54:30.194Z,25.90
2023-02-14T17:59:34.892Z,28.20
2023-02-14T18:04:58.704Z,73.50
2023-02-14T18:10:05.958Z,40.30
2023-02-14T18:15:11.946Z,32.90
2023-02-14T18:20:16.616Z,25.90
2023-02-14T18:25:20.737Z,23.50
2023-02-14T18:30:25.282Z,28.20
2023-02-14T18:35:30.839Z,29.90
2023-02-14T18:40:40.976Z,23.90
2023-02-14T18:45:44.330Z,23.10
2023-02-14T18:50:48.093Z,27.50
2023-02-14T18:55:51.580Z,31.00
2023-02-14T19:00:56.070Z,40.10
2023-02-14T19:06:00.415Z,52.20
2023-02-14T19:11:04.783Z,79.30
2023-02-14T19:16:13.060Z,66.70
2023-02-14T19:21:19.271Z,48.90
2023-02-14T19:26:25.249Z,42.00
2023-02-14T19:31:30.361Z,31.70
2023-02-14T19:36:36.969Z,27.60
2023-02-14T19:41:41.815Z,24.10
2023-02-14T19:46:49.852Z,23.10
2023-02-14T19:51:58.203Z,20.80
2023-02-14T19:57:02.445Z,30.00
2023-02-14T20:02:17.358Z,29.10
2023-02-14T20:07:22.455Z,23.10
2023-02-14T20:12:26.550Z,21.60
2023-02-14T20:17:34.526Z,27.60
2023-02-14T20:22:38.602Z,30.00
2023-02-14T20:27:46.836Z,39.30
2023-02-14T20:32:54.344Z,47.00
2023-02-14T20:38:02.388Z,42.50
2023-02-14T20:43:07.696Z,44.20
2023-02-14T20:48:14.276Z,47.60
2023-02-14T20:53:25.631Z,45.10
2023-02-14T20:58:31.658Z,39.40
2023-02-14T21:03:38.268Z,40.20
2023-02-14T21:08:46.485Z,37.90
2023-02-14T21:13:58.599Z,34.70
2023-02-14T21:19:04.336Z,34.60
2023-02-14T21:24:10.222Z,39.20
2023-02-14T21:29:14.412Z,38.10
2023-02-14T21:34:18.109Z,39.60
2023-02-14T21:39:26.897Z,39.20
2023-02-14T21:44:49.843Z,37.50
2023-02-14T21:50:12.128Z,38.90
2023-02-14T21:55:17.753Z,38.90
2023-02-14T22:00:22.842Z,39.40
2023-02-14T22:05:27.307Z,34.60
2023-02-14T22:10:32.753Z,34.10
2023-02-14T22:15:42.895Z,32.70
2023-02-14T22:20:48.084Z,31.40
2023-02-14T22:25:52.512Z,32.50
2023-02-14T22:31:00.424Z,34.20
2023-02-14T22:36:06.900Z,32.30
2023-02-14T22:41:13.970Z,31.00
2023-02-14T22:46:20.112Z,29.80
2023-02-14T22:51:26.464Z,30.90
2023-02-14T22:56:34.070Z,34.30
2023-02-14T23:01:38.838Z,37.20
2023-02-14T23:06:43.221Z,43.80
2023-02-14T23:11:48.100Z,47.40
2023-02-14T23:17:10.684Z,49.90
2023-02-14T23:22:20.599Z,47.50
2023-02-14T23:27:26.800Z,47.10
2023-02-14T23:32:30.781Z,46.60
2023-02-14T23:37:34.914Z,44.20
2023-02-14T23:42:40.373Z,45.10
2023-02-14T23:47:44.857Z,42.60
2023-02-14T23:53:05.478Z,45.20
2023-02-14T23:58:09.283Z,43.60
